sensor_id;sensor_type;location;lat;lon;timestamp;pressure;altitude;pressure_sealevel;temperature;humidity
69171;BME280;56279;47.902;12.308;2023-12-14T00:01:37;94263.88;;;5.54;100.00
69171;BME280;56279;47.902;12.308;2023-12-14T00:03:42;94257.38;;;5.52;100.00
69171;BME280;56279;47.902;12.308;2023-12-14T00:05:45;94260.50;;;5.49;100.00
69171;BME280;56279;47.902;12.308;2023-12-14T00:07:46;94268.34;;;5.49;100.00
69171;BME280;56279;47.902;12.308;2023-12-14T00:09:47;94268.13;;;5.45;100.00
69171;BME280;56279;47.902;12.308;2023-12-14T00:11:49;94269.97;;;5.45;100.00
69171;BME280;56279;47.902;12.308;2023-12-14T00:13:50;94268.38;;;5.44;100.00
69171;BME280;56279;47.902;12.308;2023-12-14T00:15:51;94273.09;;;5.42;100.00
69171;BME280;56279;47.902;12.308;2023-12-14T00:17:53;94277.31;;;5.43;100.00
69171;BME280;56279;47.902;12.308;2023-12-14T00:19:54;94277.31;;;5.43;100.00
69171;BME280;56279;47.902;12.308;2023-12-14T00:21:55;94280.97;;;5.42;100.00
69171;BME280;56279;47.902;12.308;2023-12-14T00:23:56;94286.69;;;5.44;100.00
69171;BME280;56279;47.902;12.308;2023-12-14T00:25:57;94278.59;;;5.45;100.00
69171;BME280;56279;47.902;12.308;2023-12-14T00:27:59;94281.19;;;5.50;100.00
69171;BME280;56279;47.902;12.308;2023-12-14T00:30:00;94288.22;;;5.55;100.00
69171;BME280;56279;47.902;12.308;2023-12-14T00:32:02;94292.41;;;5.56;100.00
69171;BME280;56279;47.902;12.308;2023-12-14T00:34:03;94293.97;;;5.57;100.00
69171;BME280;56279;47.902;12.308;2023-12-14T00:36:05;94294.75;;;5.57;100.00
69171;BME280;56279;47.902;12.308;2023-12-14T00:38:06;94302.59;;;5.57;100.00
69171;BME280;56279;47.902;12.308;2023-12-14T00:40:08;94301.53;;;5.58;100.00
69171;BME280;56279;47.902;12.308;2023-12-14T00:42:09;94300.00;;;5.57;100.00
69171;BME280;56279;47.902;12.308;2023-12-14T00:44:11;94308.88;;;5.56;100.00
69171;BME280;56279;47.902;12.308;2023-12-14T00:46:12;94308.38;;;5.54;100.00
69171;BME280;56279;47.902;12.308;2023-12-14T00:48:13;94311.00;;;5.54;100.00
69171;BME280;56279;47.902;12.308;2023-12-14T00:50:14;94326.19;;;5.52;100.00
69171;BME280;56279;47.902;12.308;2023-12-14T01:04:37;94354.28;;;5.32;100.00
69171;BME280;56279;47.902;12.308;2023-12-14T01:06:39;94353.47;;;5.31;100.00
69171;BME280;56279;47.902;12.308;2023-12-14T01:08:40;94355.31;;;5.31;100.00
69171;BME280;56279;47.902;12.308;2023-12-14T01:10:41;94359.75;;;5.30;100.00
69171;BME280;56279;47.902;12.308;2023-12-14T01:12:43;94362.88;;;5.32;100.00
69171;BME280;56279;47.902;12.308;2023-12-14T01:14:44;94356.09;;;5.31;100.00
69171;BME280;56279;47.902;12.308;2023-12-14T01:16:45;94362.88;;;5.32;100.00
69171;BME280;56279;47.902;12.308;2023-12-14T01:18:47;94371.50;;;5.33;100.00
69171;BME280;56279;47.902;12.308;2023-12-14T01:20:48;94369.69;;;5.33;100.00
69171;BME280;56279;47.902;12.308;2023-12-14T01:22:49;94370.72;;;5.32;100.00
69171;BME280;56279;47.902;12.308;2023-12-14T01:24:50;94377.81;;;5.32;100.00
69171;BME280;56279;47.902;12.308;2023-12-14T01:26:51;94374.41;;;5.31;100.00
69171;BME280;56279;47.902;12.308;2023-12-14T01:28:53;94381.97;;;5.33;100.00
69171;BME280;56279;47.902;12.308;2023-12-14T01:30:54;94381.19;;;5.32;100.00
69171;BME280;56279;47.902;12.308;2023-12-14T01:32:58;94386.41;;;5.32;100.00
69171;BME280;56279;47.902;12.308;2023-12-14T01:34:59;94391.13;;;5.30;100.00
69171;BME280;56279;47.902;12.308;2023-12-14T01:37:00;94396.38;;;5.30;100.00
69171;BME280;56279;47.902;12.308;2023-12-14T01:39:01;94398.19;;;5.30;100.00
69171;BME280;56279;47.902;12.308;2023-12-14T01:41:03;94399.25;;;5.29;100.00
69171;BME280;56279;47.902;12.308;2023-12-14T01:43:09;94406.31;;;5.28;100.00
69171;BME280;56279;47.902;12.308;2023-12-14T01:45:11;94409.72;;;5.29;100.00
69171;BME280;56279;47.902;12.308;2023-12-14T01:47:16;94410.75;;;5.28;100.00
69171;BME280;56279;47.902;12.308;2023-12-14T01:49:18;94407.38;;;5.27;100.00
69171;BME280;56279;47.902;12.308;2023-12-14T01:51:19;94414.94;;;5.29;100.00
69171;BME280;56279;47.902;12.308;2023-12-14T01:53:21;94413.13;;;5.29;100.00
69171;BME280;56279;47.902;12.308;2023-12-14T01:55:22;94412.63;;;5.27;100.00
69171;BME280;56279;47.902;12.308;2023-12-14T01:57:24;94416.78;;;5.28;100.00
69171;BME280;56279;47.902;12.308;2023-12-14T01:59:25;94414.16;;;5.28;100.00
69171;BME280;56279;47.902;12.308;2023-12-14T02:01:36;94417.56;;;5.29;100.00
69171;BME280;56279;47.902;12.308;2023-12-14T02:03:46;94419.38;;;5.28;100.00
69171;BME280;56279;47.902;12.308;2023-12-14T02:05:47;94429.84;;;5.28;100.00
69171;BME280;56279;47.902;12.308;2023-12-14T02:07:49;94422.81;;;5.29;100.00
69171;BME280;56279;47.902;12.308;2023-12-14T02:09:51;94428.31;;;5.27;100.00
69171;BME280;56279;47.902;12.308;2023-12-14T02:11:52;94427.00;;;5.25;100.00
69171;BME280;56279;47.902;12.308;2023-12-14T02:13:53;94434.06;;;5.24;100.00
69171;BME280;56279;47.902;12.308;2023-12-14T02:15:54;94433.00;;;5.25;100.00
69171;BME280;56279;47.902;12.308;2023-12-14T02:17:56;94440.84;;;5.25;100.00
69171;BME280;56279;47.902;12.308;2023-12-14T02:19:57;94443.72;;;5.24;100.00
69171;BME280;56279;47.902;12.308;2023-12-14T02:21:59;94441.13;;;5.24;100.00
69171;BME280;56279;47.902;12.308;2023-12-14T02:24:00;94442.69;;;5.25;100.00
69171;BME280;56279;47.902;12.308;2023-12-14T02:26:02;94444.25;;;5.26;100.00
69171;BME280;56279;47.902;12.308;2023-12-14T02:28:03;94446.84;;;5.26;100.00
69171;BME280;56279;47.902;12.308;2023-12-14T02:30:05;94450.53;;;5.25;100.00
69171;BME280;56279;47.902;12.308;2023-12-14T02:32:06;94456.81;;;5.24;100.00
69171;BME280;56279;47.902;12.308;2023-12-14T02:34:08;94454.19;;;5.24;100.00
69171;BME280;56279;47.902;12.308;2023-12-14T02:36:09;94454.19;;;5.24;100.00
69171;BME280;56279;47.902;12.308;2023-12-14T02:38:10;94457.59;;;5.24;100.00
69171;BME280;56279;47.902;12.308;2023-12-14T02:40:12;94461.53;;;5.22;100.00
69171;BME280;56279;47.902;12.308;2023-12-14T02:42:13;94457.09;;;5.22;100.00
69171;BME280;56279;47.902;12.308;2023-12-14T02:44:15;94456.28;;;5.22;100.00
69171;BME280;56279;47.902;12.308;2023-12-14T02:46:16;94459.69;;;5.22;100.00
69171;BME280;56279;47.902;12.308;2023-12-14T02:48:19;94457.09;;;5.22;100.00
69171;BME280;56279;47.902;12.308;2023-12-14T02:50:20;94464.66;;;5.24;100.00
69171;BME280;56279;47.902;12.308;2023-12-14T02:52:22;94470.91;;;5.23;100.00
69171;BME280;56279;47.902;12.308;2023-12-14T02:54:23;94475.13;;;5.24;100.00
69171;BME280;56279;47.902;12.308;2023-12-14T02:56:25;94471.72;;;5.23;100.00
69171;BME280;56279;47.902;12.308;2023-12-14T02:58:26;94465.69;;;5.23;100.00
69171;BME280;56279;47.902;12.308;2023-12-14T03:00:27;94476.94;;;5.23;100.00
69171;BME280;56279;47.902;12.308;2023-12-14T03:02:28;94476.16;;;5.23;100.00
69171;BME280;56279;47.902;12.308;2023-12-14T03:04:30;94478.00;;;5.22;100.00
69171;BME280;56279;47.902;12.308;2023-12-14T03:06:31;94484.00;;;5.23;100.00
69171;BME280;56279;47.902;12.308;2023-12-14T03:08:32;94490.00;;;5.23;100.00
69171;BME280;56279;47.902;12.308;2023-12-14T03:10:34;94490.81;;;5.24;100.00
69171;BME280;56279;47.902;12.308;2023-12-14T03:12:35;94490.56;;;5.20;100.00
69171;BME280;56279;47.902;12.308;2023-12-14T03:14:36;94492.91;;;5.22;100.00
69171;BME280;56279;47.902;12.308;2023-12-14T03:16:38;94497.34;;;5.21;100.00
69171;BME280;56279;47.902;12.308;2023-12-14T03:18:39;94500.25;;;5.20;100.00
69171;BME280;56279;47.902;12.308;2023-12-14T03:20:41;94504.69;;;5.19;100.00
69171;BME280;56279;47.902;12.308;2023-12-14T03:22:42;94507.81;;;5.21;100.00
69171;BME280;56279;47.902;12.308;2023-12-14T03:24:43;94510.94;;;5.23;100.00
69171;BME280;56279;47.902;12.308;2023-12-14T03:26:44;94508.31;;;5.23;100.00
69171;BME280;56279;47.902;12.308;2023-12-14T03:28:46;94509.38;;;5.22;100.00
69171;BME280;56279;47.902;12.308;2023-12-14T03:30:47;94517.75;;;5.24;100.00
69171;BME280;56279;47.902;12.308;2023-12-14T03:32:49;94515.66;;;5.26;100.00
69171;BME280;56279;47.902;12.308;2023-12-14T03:34:50;94518.00;;;5.28;100.00
69171;BME280;56279;47.902;12.308;2023-12-14T03:36:52;94517.75;;;5.29;100.00
69171;BME280;56279;47.902;12.308;2023-12-14T03:38:53;94519.56;;;5.29;100.00
69171;BME280;56279;47.902;12.308;2023-12-14T03:40:55;94519.56;;;5.29;100.00
69171;BME280;56279;47.902;12.308;2023-12-14T03:42:56;94526.38;;;5.30;100.00
69171;BME280;56279;47.902;12.308;2023-12-14T03:44:57;94531.59;;;5.30;100.00
69171;BME280;56279;47.902;12.308;2023-12-14T03:46:59;94527.94;;;5.31;100.00
69171;BME280;56279;47.902;12.308;2023-12-14T03:49:01;94540.00;;;5.32;100.00
69171;BME280;56279;47.902;12.308;2023-12-14T03:51:04;94536.56;;;5.31;100.00
69171;BME280;56279;47.902;12.308;2023-12-14T03:53:05;94537.88;;;5.29;100.00
69171;BME280;56279;47.902;12.308;2023-12-14T03:55:07;94544.94;;;5.28;100.00
69171;BME280;56279;47.902;12.308;2023-12-14T03:57:08;94544.16;;;5.28;100.00
69171;BME280;56279;47.902;12.308;2023-12-14T03:59:10;94548.88;;;5.26;100.00
69171;BME280;56279;47.902;12.308;2023-12-14T04:01:17;94549.38;;;5.23;100.00
69171;BME280;56279;47.902;12.308;2023-12-14T04:03:19;94554.88;;;5.21;100.00
69171;BME280;56279;47.902;12.308;2023-12-14T04:05:20;94556.19;;;5.19;100.00
69171;BME280;56279;47.902;12.308;2023-12-14T04:07:21;94562.47;;;5.18;100.00
69171;BME280;56279;47.902;12.308;2023-12-14T04:09:23;94571.09;;;5.18;100.00
69171;BME280;56279;47.902;12.308;2023-12-14T04:11:24;94569.53;;;5.12;100.00
69171;BME280;56279;47.902;12.308;2023-12-14T04:13:25;94578.94;;;5.08;100.00
69171;BME280;56279;47.902;12.308;2023-12-14T04:15:27;94578.44;;;5.06;100.00
69171;BME280;56279;47.902;12.308;2023-12-14T04:17:28;94589.91;;;5.05;100.00
69171;BME280;56279;47.902;12.308;2023-12-14T04:19:31;94589.41;;;5.03;100.00
69171;BME280;56279;47.902;12.308;2023-12-14T04:21:32;94602.19;;;5.05;100.00
69171;BME280;56279;47.902;12.308;2023-12-14T04:23:33;94601.41;;;5.04;100.00
69171;BME280;56279;47.902;12.308;2023-12-14T04:25:34;94602.47;;;5.03;100.00
69171;BME280;56279;47.902;12.308;2023-12-14T04:27:36;94607.69;;;5.03;100.00
69171;BME280;56279;47.902;12.308;2023-12-14T04:29:37;94612.94;;;5.03;100.00
69171;BME280;56279;47.902;12.308;2023-12-14T04:31:38;94604.28;;;5.03;100.00
69171;BME280;56279;47.902;12.308;2023-12-14T04:33:39;94617.09;;;5.04;100.00
69171;BME280;56279;47.902;12.308;2023-12-14T04:35:41;94617.38;;;5.03;100.00
69171;BME280;56279;47.902;12.308;2023-12-14T04:37:42;94620.50;;;5.05;100.00
69171;BME280;56279;47.902;12.308;2023-12-14T04:39:44;94621.81;;;5.02;100.00
69171;BME280;56279;47.902;12.308;2023-12-14T04:41:45;94627.81;;;5.03;100.00
69171;BME280;56279;47.902;12.308;2023-12-14T04:43:46;94625.22;;;5.03;100.00
69171;BME280;56279;47.902;12.308;2023-12-14T04:45:48;94629.66;;;5.02;100.00
69171;BME280;56279;47.902;12.308;2023-12-14T04:47:49;94634.13;;;5.02;100.00
69171;BME280;56279;47.902;12.308;2023-12-14T04:49:50;94638.56;;;5.01;100.00
69171;BME280;56279;47.902;12.308;2023-12-14T04:51:51;94640.66;;;4.99;100.00
69171;BME280;56279;47.902;12.308;2023-12-14T04:53:53;94649.25;;;5.00;100.00
69171;BME280;56279;47.902;12.308;2023-12-14T04:55:54;94650.03;;;5.00;100.00
69171;BME280;56279;47.902;12.308;2023-12-14T04:57:55;94657.88;;;5.00;100.00
69171;BME280;56279;47.902;12.308;2023-12-14T04:59:57;94666.78;;;4.99;100.00
69171;BME280;56279;47.902;12.308;2023-12-14T05:01:58;94664.41;;;4.98;100.00
69171;BME280;56279;47.902;12.308;2023-12-14T05:03:59;94669.63;;;4.98;100.00
69171;BME280;56279;47.902;12.308;2023-12-14T05:06:01;94660.25;;;4.97;100.00
69171;BME280;56279;47.902;12.308;2023-12-14T05:08:02;94668.09;;;4.97;100.00
69171;BME280;56279;47.902;12.308;2023-12-14T05:10:04;94670.69;;;4.97;100.00
69171;BME280;56279;47.902;12.308;2023-12-14T05:12:06;94671.47;;;4.97;100.00
69171;BME280;56279;47.902;12.308;2023-12-14T05:14:07;94678.53;;;4.97;100.00
69171;BME280;56279;47.902;12.308;2023-12-14T05:16:13;94683.78;;;4.97;100.00
69171;BME280;56279;47.902;12.308;2023-12-14T05:18:14;94678.78;;;4.95;100.00
69171;BME280;56279;47.902;12.308;2023-12-14T05:20:16;94688.72;;;4.93;100.00
69171;BME280;56279;47.902;12.308;2023-12-14T05:22:17;94687.16;;;4.92;100.00
69171;BME280;56279;47.902;12.308;2023-12-14T05:24:18;94702.84;;;4.92;100.00
69171;BME280;56279;47.902;12.308;2023-12-14T05:26:20;94697.63;;;4.92;100.00
69171;BME280;56279;47.902;12.308;2023-12-14T05:28:22;94698.38;;;4.93;100.00
69171;BME280;56279;47.902;12.308;2023-12-14T05:30:23;94700.47;;;4.90;100.00
69171;BME280;56279;47.902;12.308;2023-12-14T05:32:25;94704.94;;;4.90;100.00
69171;BME280;56279;47.902;12.308;2023-12-14T05:34:26;94711.47;;;4.87;100.00
69171;BME280;56279;47.902;12.308;2023-12-14T05:36:27;94710.91;;;4.85;100.00
69171;BME280;56279;47.902;12.308;2023-12-14T05:38:29;94711.97;;;4.84;100.00
69171;BME280;56279;47.902;12.308;2023-12-14T05:40:30;94724.50;;;4.82;100.00
69171;BME280;56279;47.902;12.308;2023-12-14T05:42:32;94724.75;;;4.81;100.00
69171;BME280;56279;47.902;12.308;2023-12-14T05:44:33;94730.22;;;4.79;100.00
69171;BME280;56279;47.902;12.308;2023-12-14T05:46:35;94738.59;;;4.81;100.00
69171;BME280;56279;47.902;12.308;2023-12-14T05:48:37;94734.97;;;4.82;100.00
69171;BME280;56279;47.902;12.308;2023-12-14T05:50:38;94742.81;;;4.82;100.00
69171;BME280;56279;47.902;12.308;2023-12-14T05:52:40;94745.41;;;4.82;100.00
69171;BME280;56279;47.902;12.308;2023-12-14T05:54:46;94747.22;;;4.82;100.00
69171;BME280;56279;47.902;12.308;2023-12-14T05:56:48;94746.72;;;4.80;100.00
69171;BME280;56279;47.902;12.308;2023-12-14T05:58:49;94752.97;;;4.79;100.00
69171;BME280;56279;47.902;12.308;2023-12-14T06:00:51;94753.75;;;4.79;100.00
69171;BME280;56279;47.902;12.308;2023-12-14T06:02:52;94759.25;;;4.78;100.00
69171;BME280;56279;47.902;12.308;2023-12-14T06:04:53;94762.88;;;4.77;100.00
69171;BME280;56279;47.902;12.308;2023-12-14T06:06:55;94762.88;;;4.77;100.00
69171;BME280;56279;47.902;12.308;2023-12-14T06:08:56;94768.13;;;4.77;100.00
69171;BME280;56279;47.902;12.308;2023-12-14T06:10:57;94775.97;;;4.77;100.00
69171;BME280;56279;47.902;12.308;2023-12-14T06:12:59;94777.00;;;4.76;100.00
69171;BME280;56279;47.902;12.308;2023-12-14T06:15:00;94779.38;;;4.77;100.00
69171;BME280;56279;47.902;12.308;2023-12-14T06:17:02;94792.97;;;4.79;100.00
69171;BME280;56279;47.902;12.308;2023-12-14T06:19:03;94786.94;;;4.79;100.00
69171;BME280;56279;47.902;12.308;2023-12-14T06:21:05;94792.16;;;4.79;100.00
69171;BME280;56279;47.902;12.308;2023-12-14T06:23:07;94791.94;;;4.80;100.00
69171;BME280;56279;47.902;12.308;2023-12-14T06:25:08;94795.31;;;4.81;100.00
69171;BME280;56279;47.902;12.308;2023-12-14T06:27:09;94798.97;;;4.80;100.00
69171;BME280;56279;47.902;12.308;2023-12-14T06:29:13;94801.59;;;4.80;100.00
69171;BME280;56279;47.902;12.308;2023-12-14T06:31:15;94807.63;;;4.80;100.00
69171;BME280;56279;47.902;12.308;2023-12-14T06:33:17;94819.41;;;4.83;100.00
69171;BME280;56279;47.902;12.308;2023-12-14T06:35:18;94820.16;;;4.83;100.00
69171;BME280;56279;47.902;12.308;2023-12-14T06:37:19;94827.25;;;4.83;100.00
69171;BME280;56279;47.902;12.308;2023-12-14T06:39:23;94820.47;;;4.87;100.00
69171;BME280;56279;47.902;12.308;2023-12-14T06:41:28;94825.41;;;4.88;100.00
69171;BME280;56279;47.902;12.308;2023-12-14T06:43:59;94830.41;;;4.90;100.00
69171;BME280;56279;47.902;12.308;2023-12-14T06:46:03;94842.44;;;4.91;100.00
69171;BME280;56279;47.902;12.308;2023-12-14T06:48:05;94837.69;;;4.88;100.00
69171;BME280;56279;47.902;12.308;2023-12-14T06:50:07;94846.81;;;4.85;100.00
69171;BME280;56279;47.902;12.308;2023-12-14T06:52:08;94856.75;;;4.83;100.00
69171;BME280;56279;47.902;12.308;2023-12-14T06:54:10;94858.84;;;4.81;100.00
69171;BME280;56279;47.902;12.308;2023-12-14T06:56:12;94863.28;;;4.81;100.00
69171;BME280;56279;47.902;12.308;2023-12-14T06:58:13;94874.53;;;4.81;100.00
69171;BME280;56279;47.902;12.308;2023-12-14T07:00:15;94869.28;;;4.81;100.00
69171;BME280;56279;47.902;12.308;2023-12-14T07:02:16;94872.97;;;4.80;100.00
69171;BME280;56279;47.902;12.308;2023-12-14T07:04:18;94883.41;;;4.80;100.00
69171;BME280;56279;47.902;12.308;2023-12-14T07:06:20;94886.78;;;4.81;100.00
69171;BME280;56279;47.902;12.308;2023-12-14T07:08:22;94893.06;;;4.80;100.00
69171;BME280;56279;47.902;12.308;2023-12-14T07:10:23;94888.34;;;4.77;100.00
69171;BME280;56279;47.902;12.308;2023-12-14T07:12:24;94889.94;;;4.78;100.00
69171;BME280;56279;47.902;12.308;2023-12-14T07:14:25;94899.84;;;4.76;100.00
69171;BME280;56279;47.902;12.308;2023-12-14T07:16:27;94902.69;;;4.74;100.00
69171;BME280;56279;47.902;12.308;2023-12-14T07:18:28;94903.97;;;4.72;100.00
69171;BME280;56279;47.902;12.308;2023-12-14T07:20:29;94913.66;;;4.71;100.00
69171;BME280;56279;47.902;12.308;2023-12-14T07:22:30;94914.44;;;4.72;100.00
69171;BME280;56279;47.902;12.308;2023-12-14T07:24:32;94916.81;;;4.73;100.00
69171;BME280;56279;47.902;12.308;2023-12-14T07:26:33;94917.06;;;4.72;100.00
69171;BME280;56279;47.902;12.308;2023-12-14T07:28:34;94923.88;;;4.73;100.00
69171;BME280;56279;47.902;12.308;2023-12-14T07:30:35;94928.31;;;4.72;100.00
69171;BME280;56279;47.902;12.308;2023-12-14T07:32:37;94935.13;;;4.73;100.00
69171;BME280;56279;47.902;12.308;2023-12-14T07:34:38;94933.53;;;4.72;100.00
69171;BME280;56279;47.902;12.308;2023-12-14T07:36:39;94934.56;;;4.71;100.00
69171;BME280;56279;47.902;12.308;2023-12-14T07:38:40;94939.25;;;4.69;100.00
69171;BME280;56279;47.902;12.308;2023-12-14T07:40:42;94939.25;;;4.69;100.00
69171;BME280;56279;47.902;12.308;2023-12-14T07:42:44;94948.94;;;4.69;100.00
69171;BME280;56279;47.902;12.308;2023-12-14T07:44:46;94945.53;;;4.68;100.00
69171;BME280;56279;47.902;12.308;2023-12-14T07:46:47;94959.38;;;4.69;100.00
69171;BME280;56279;47.902;12.308;2023-12-14T07:48:49;94957.78;;;4.68;100.00
69171;BME280;56279;47.902;12.308;2023-12-14T07:50:51;94965.09;;;4.66;100.00
69171;BME280;56279;47.902;12.308;2023-12-14T07:52:52;94964.31;;;4.65;100.00
69171;BME280;56279;47.902;12.308;2023-12-14T07:54:54;94972.69;;;4.67;100.00
69171;BME280;56279;47.902;12.308;2023-12-14T07:56:55;94973.47;;;4.68;100.00
69171;BME280;56279;47.902;12.308;2023-12-14T07:58:57;94977.69;;;4.69;100.00
69171;BME280;56279;47.902;12.308;2023-12-14T08:00:58;94976.63;;;4.70;100.00
69171;BME280;56279;47.902;12.308;2023-12-14T08:02:59;94977.16;;;4.72;100.00
69171;BME280;56279;47.902;12.308;2023-12-14T08:05:01;94984.50;;;4.75;100.00
69171;BME280;56279;47.902;12.308;2023-12-14T08:07:03;94980.09;;;4.75;100.00
69171;BME280;56279;47.902;12.308;2023-12-14T08:09:05;94980.63;;;4.77;100.00
69171;BME280;56279;47.902;12.308;2023-12-14T08:11:06;94991.59;;;4.79;100.00
69171;BME280;56279;47.902;12.308;2023-12-14T08:13:08;95001.28;;;4.79;100.00
69171;BME280;56279;47.902;12.308;2023-12-14T08:15:12;94999.19;;;4.76;100.00
69171;BME280;56279;47.902;12.308;2023-12-14T08:17:13;94999.66;;;4.73;100.00
69171;BME280;56279;47.902;12.308;2023-12-14T08:19:15;95009.84;;;4.74;100.00
69171;BME280;56279;47.902;12.308;2023-12-14T08:21:17;95006.22;;;4.75;100.00
69171;BME280;56279;47.902;12.308;2023-12-14T08:23:19;95011.44;;;4.75;100.00
69171;BME280;56279;47.902;12.308;2023-12-14T08:25:20;95013.25;;;4.75;100.00
69171;BME280;56279;47.902;12.308;2023-12-14T08:27:21;95023.19;;;4.73;100.00
69171;BME280;56279;47.902;12.308;2023-12-14T08:29:22;95019.78;;;4.72;100.00
69171;BME280;56279;47.902;12.308;2023-12-14T08:31:24;95022.38;;;4.72;100.00
69171;BME280;56279;47.902;12.308;2023-12-14T08:33:26;95028.94;;;4.75;100.00
69171;BME280;56279;47.902;12.308;2023-12-14T08:35:27;95027.66;;;4.77;100.00
69171;BME280;56279;47.902;12.308;2023-12-14T08:37:29;95032.63;;;4.79;100.00
69171;BME280;56279;47.902;12.308;2023-12-14T08:39:30;95030.56;;;4.81;100.00
69171;BME280;56279;47.902;12.308;2023-12-14T08:41:31;95040.00;;;4.82;100.00
69171;BME280;56279;47.902;12.308;2023-12-14T08:43:33;95042.88;;;4.85;100.00
69171;BME280;56279;47.902;12.308;2023-12-14T08:45:34;95048.44;;;4.89;100.00
69171;BME280;56279;47.902;12.308;2023-12-14T08:47:35;95050.56;;;4.92;100.00
69171;BME280;56279;47.902;12.308;2023-12-14T08:49:38;95046.41;;;4.96;100.00
69171;BME280;56279;47.902;12.308;2023-12-14T08:51:40;95048.53;;;4.99;100.00
69171;BME280;56279;47.902;12.308;2023-12-14T08:53:41;95056.09;;;5.01;100.00
69171;BME280;56279;47.902;12.308;2023-12-14T08:55:44;95061.63;;;5.04;100.00
69171;BME280;56279;47.902;12.308;2023-12-14T08:57:45;95061.13;;;5.07;100.00
69171;BME280;56279;47.902;12.308;2023-12-14T08:59:46;95060.34;;;5.07;100.00
69171;BME280;56279;47.902;12.308;2023-12-14T09:01:48;95061.13;;;5.07;100.00
69171;BME280;56279;47.902;12.308;2023-12-14T09:03:49;95063.25;;;5.10;100.00
69171;BME280;56279;47.902;12.308;2023-12-14T09:05:51;95065.63;;;5.12;100.00
69171;BME280;56279;47.902;12.308;2023-12-14T09:07:52;95067.75;;;5.15;100.00
69171;BME280;56279;47.902;12.308;2023-12-14T09:09:57;95071.16;;;5.15;100.00
69171;BME280;56279;47.902;12.308;2023-12-14T09:11:59;95077.94;;;5.16;100.00
69171;BME280;56279;47.902;12.308;2023-12-14T09:14:02;95076.13;;;5.17;100.00
69171;BME280;56279;47.902;12.308;2023-12-14T09:16:03;95078.47;;;5.18;100.00
69171;BME280;56279;47.902;12.308;2023-12-14T09:18:05;95085.56;;;5.18;100.00
69171;BME280;56279;47.902;12.308;2023-12-14T09:20:07;95078.78;;;5.22;100.00
69171;BME280;56279;47.902;12.308;2023-12-14T09:22:08;95087.16;;;5.24;100.00
69171;BME280;56279;47.902;12.308;2023-12-14T09:24:09;95091.38;;;5.25;100.00
69171;BME280;56279;47.902;12.308;2023-12-14T09:26:10;95091.91;;;5.27;100.00
69171;BME280;56279;47.902;12.308;2023-12-14T09:28:12;95100.31;;;5.29;100.00
69171;BME280;56279;47.902;12.308;2023-12-14T09:30:13;95111.31;;;5.31;100.00
69171;BME280;56279;47.902;12.308;2023-12-14T09:32:15;95107.94;;;5.35;100.00
69171;BME280;56279;47.902;12.308;2023-12-14T09:34:18;95104.31;;;5.41;100.00
69171;BME280;56279;47.902;12.308;2023-12-14T09:36:19;95106.97;;;5.46;100.00
69171;BME280;56279;47.902;12.308;2023-12-14T09:38:20;95113.31;;;5.50;100.00
69171;BME280;56279;47.902;12.308;2023-12-14T09:40:23;95112.03;;;5.53;100.00
69171;BME280;56279;47.902;12.308;2023-12-14T09:42:24;95117.00;;;5.54;100.00
69171;BME280;56279;47.902;12.308;2023-12-14T09:44:26;95115.41;;;5.53;100.00
69171;BME280;56279;47.902;12.308;2023-12-14T09:46:27;95111.22;;;5.52;100.00
69171;BME280;56279;47.902;12.308;2023-12-14T09:48:29;95123.78;;;5.50;100.00
69171;BME280;56279;47.902;12.308;2023-12-14T09:50:31;95125.34;;;5.51;100.00
69171;BME280;56279;47.902;12.308;2023-12-14T09:52:34;95126.66;;;5.54;100.00
69171;BME280;56279;47.902;12.308;2023-12-14T09:54:36;95126.97;;;5.57;100.00
69171;BME280;56279;47.902;12.308;2023-12-14T09:56:45;95129.59;;;5.57;100.00
69171;BME280;56279;47.902;12.308;2023-12-14T09:58:46;95124.34;;;5.57;100.00
69171;BME280;56279;47.902;12.308;2023-12-14T10:00:48;95131.69;;;5.60;100.00
69171;BME280;56279;47.902;12.308;2023-12-14T10:02:49;95132.22;;;5.63;100.00
69171;BME280;56279;47.902;12.308;2023-12-14T10:04:51;95127.00;;;5.63;100.00
69171;BME280;56279;47.902;12.308;2023-12-14T10:06:53;95131.19;;;5.64;100.00
69171;BME280;56279;47.902;12.308;2023-12-14T10:08:56;95131.19;;;5.64;100.00
69171;BME280;56279;47.902;12.308;2023-12-14T10:10:57;95138.50;;;5.62;100.00
69171;BME280;56279;47.902;12.308;2023-12-14T10:12:59;95130.41;;;5.63;100.00
69171;BME280;56279;47.902;12.308;2023-12-14T10:15:00;95130.44;;;5.68;100.00
69171;BME280;56279;47.902;12.308;2023-12-14T10:17:17;95128.66;;;5.74;100.00
69171;BME280;56279;47.902;12.308;2023-12-14T10:19:19;95137.84;;;5.76;100.00
69171;BME280;56279;47.902;12.308;2023-12-14T10:21:20;95134.72;;;5.79;100.00
69171;BME280;56279;47.902;12.308;2023-12-14T10:23:22;95129.47;;;5.79;100.00
69171;BME280;56279;47.902;12.308;2023-12-14T10:25:23;95138.88;;;5.75;100.00
69171;BME280;56279;47.902;12.308;2023-12-14T10:27:24;95135.19;;;5.71;100.00
69171;BME280;56279;47.902;12.308;2023-12-14T10:29:26;95139.63;;;5.71;100.00
69171;BME280;56279;47.902;12.308;2023-12-14T10:31:28;95145.13;;;5.69;100.00
69171;BME280;56279;47.902;12.308;2023-12-14T10:33:29;95149.31;;;5.70;100.00
69171;BME280;56279;47.902;12.308;2023-12-14T10:35:30;95145.88;;;5.70;100.00
69171;BME280;56279;47.902;12.308;2023-12-14T10:37:37;95144.56;;;5.67;100.00
69171;BME280;56279;47.902;12.308;2023-12-14T10:39:41;95149.78;;;5.67;100.00
69171;BME280;56279;47.902;12.308;2023-12-14T10:41:46;95148.75;;;5.68;100.00
69171;BME280;56279;47.902;12.308;2023-12-14T10:43:51;95155.06;;;5.72;100.00
69171;BME280;56279;47.902;12.308;2023-12-14T10:45:54;95149.88;;;5.77;100.00
69171;BME280;56279;47.902;12.308;2023-12-14T10:47:58;95152.53;;;5.82;100.00
69171;BME280;56279;47.902;12.308;2023-12-14T10:50:01;95156.53;;;5.85;100.00